Time;durP1;ratioP1;P1;durP2;ratioP2;P2;SDS_P1;SDS_P2;PMS_P1;PMS_P2;Temp;Humidity;BMP_temperature;BMP_pressure;BME280_temperature;BME280_humidity;BME280_pressure;Samples;Min_cycle;Max_cycle;Signal;HPM_P1;HPM_P2
2023/12/14 00:01:13;;;;;;;;;;;;;;;4.52;100.00;98589.13;4945992;28;21361;-87
2023/12/14 00:03:40;;;;;;;;;;;;;;;4.47;100.00;98596.31;4964596;28;19930;-86
2023/12/14 00:06:06;;;;;;;;;;;;;;;4.47;100.00;98595.47;4964472;28;20009;-86
2023/12/14 00:08:31;;;;;;;;;;;;;;;4.51;100.00;98607.53;4964097;28;20001;-86
2023/12/14 00:10:56;;;;;;;;;;;;;;;4.86;100.00;98605.34;4947415;28;20012;-86
2023/12/14 00:13:22;;;;;;;;;;;;;;;5.52;100.00;98618.53;4965045;28;19922;-85
2023/12/14 00:15:49;;;;;;;;;;;;;;;5.87;100.00;98631.97;4944999;28;19981;-86
2023/12/14 00:18:14;;;;;;;;;;;;;;;6.09;100.00;98631.94;4947151;28;19923;-86
2023/12/14 00:20:39;;;;;;;;;;;;;;;6.28;100.00;98645.16;4963979;28;19925;-87
2023/12/14 00:23:05;;;;;;;;;;;;;;;6.41;100.00;98649.88;4946040;28;19933;-86
2023/12/14 00:25:30;;;;;;;;;;;;;;;6.52;100.00;98653.72;4947900;28;19985;-86
2023/12/14 00:27:55;;;;;;;;;;;;;;;6.61;100.00;98651.66;4947437;28;19961;-87
2023/12/14 00:30:20;;;;;;;;;;;;;;;6.69;100.00;98654.78;4945774;28;19961;-86
2023/12/14 00:32:45;;;;;;;;;;;;;;;6.78;100.00;98658.75;4946852;28;19929;-87
2023/12/14 00:35:11;;;;;;;;;;;;;;;6.84;100.00;98663.75;4947172;28;19926;-90
2023/12/14 00:37:36;;;;;;;;;;;;;;;6.90;100.00;98666.13;4947229;28;20365;-85
2023/12/14 09:44:23;;;;;;;;;;;;;;;5.36;100.00;99636.78;4970013;23;19926;-81
2023/12/14 09:46:50;;;;;;;;;;;;;;;5.20;100.00;99642.41;4982870;28;20305;-86
2023/12/14 09:49:15;;;;;;;;;;;;;;;5.11;100.00;99644.38;4983862;28;19922;-83
2023/12/14 09:51:41;;;;;;;;;;;;;;;5.05;100.00;99640.97;4982601;28;19928;-83
2023/12/14 09:54:06;;;;;;;;;;;;;;;5.06;100.00;99642.72;4982614;28;20008;-82
2023/12/14 09:56:32;;;;;;;;;;;;;;;5.04;100.00;99641.00;4982337;28;19928;-81
2023/12/14 09:58:58;;;;;;;;;;;;;;;4.99;100.00;99645.50;4981250;28;20013;-82
2023/12/14 10:01:24;;;;;;;;;;;;;;;4.98;100.00;99663.03;4965484;28;19921;-82
2023/12/14 10:03:49;;;;;;;;;;;;;;;4.89;100.00;99661.47;4983019;28;19922;-82
2023/12/14 10:06:14;;;;;;;;;;;;;;;4.84;100.00;99671.22;4981679;28;20010;-82
2023/12/14 10:08:40;;;;;;;;;;;;;;;4.75;100.00;99678.41;4965471;28;19929;-82
2023/12/14 10:11:14;;;;;;;;;;;;;;;4.69;100.00;99679.38;4982482;28;20074;-82
2023/12/14 10:13:39;;;;;;;;;;;;;;;4.73;100.00;99683.69;4980684;28;20377;-83
2023/12/14 10:16:05;;;;;;;;;;;;;;;4.69;100.00;99682.91;4982834;28;19965;-82
2023/12/14 10:18:31;;;;;;;;;;;;;;;4.61;100.00;99694.44;4985789;28;20350;-82
2023/12/14 10:20:56;;;;;;;;;;;;;;;4.58;100.00;99692.75;4984858;28;19925;-83
2023/12/14 10:23:22;;;;;;;;;;;;;;;4.60;100.00;99704.06;4986017;28;19914;-88
2023/12/14 10:25:47;;;;;;;;;;;;;;;4.57;100.00;99701.50;4986477;28;20297;-83
2023/12/14 10:28:16;;;;;;;;;;;;;;;4.59;100.00;99706.72;4984803;28;20314;-83
2023/12/14 10:30:41;;;;;;;;;;;;;;;4.62;100.00;99709.28;4986008;28;19999;-82
2023/12/14 10:33:07;;;;;;;;;;;;;;;4.48;100.00;99718.31;4985582;28;20387;-83
2023/12/14 10:35:32;;;;;;;;;;;;;;;4.54;100.00;99717.31;4986235;28;20029;-84
2023/12/14 10:38:01;;;;;;;;;;;;;;;4.49;100.00;99722.66;4985753;28;19929;-85
2023/12/14 10:40:28;;;;;;;;;;;;;;;5.00;100.00;99728.66;4986151;28;19924;-84
2023/12/14 10:42:55;;;;;;;;;;;;;;;5.61;100.00;99732.53;4984834;28;19928;-85
2023/12/14 10:45:22;;;;;;;;;;;;;;;5.93;100.00;99730.91;4968085;28;19930;-83
2023/12/14 10:47:50;;;;;;;;;;;;;;;6.14;100.00;99732.19;4985968;28;19922;-84
2023/12/14 10:50:16;;;;;;;;;;;;;;;6.29;100.00;99736.19;4985769;28;20374;-84
2023/12/14 10:52:42;;;;;;;;;;;;;;;6.44;100.00;99736.69;4964703;28;20013;-82
2023/12/14 10:55:10;;;;;;;;;;;;;;;6.54;100.00;99733.75;4982530;28;20029;-85
2023/12/14 10:57:36;;;;;;;;;;;;;;;6.65;100.00;99741.38;4984325;28;19918;-82
2023/12/14 11:00:02;;;;;;;;;;;;;;;6.74;100.00;99748.13;4967898;28;20021;-82
2023/12/14 11:02:27;;;;;;;;;;;;;;;6.83;100.00;99744.38;4984425;28;19933;-84
2023/12/14 11:05:09;;;;;;;;;;;;;;;6.88;100.00;99748.63;4985621;28;20432;-83
2023/12/14 11:07:46;;;;;;;;;;;;;;;6.95;100.00;99753.72;4967325;28;19917;-83
2023/12/14 11:10:11;;;;;;;;;;;;;;;7.02;100.00;99750.88;4985663;28;20009;-82
2023/12/14 11:12:37;;;;;;;;;;;;;;;7.08;100.00;99758.59;4980225;28;20008;-83
2023/12/14 11:15:03;;;;;;;;;;;;;;;7.14;100.00;99761.97;4984800;28;19937;-87
2023/12/14 11:17:29;;;;;;;;;;;;;;;7.18;100.00;99763.56;4985277;28;19922;-85
2023/12/14 11:19:55;;;;;;;;;;;;;;;7.23;100.00;99764.31;4985610;28;19917;-85
2023/12/14 11:22:24;;;;;;;;;;;;;;;7.28;100.00;99765.03;4984424;28;19918;-83
2023/12/14 11:24:55;;;;;;;;;;;;;;;7.32;100.00;99768.44;4985237;28;19964;-84
2023/12/14 11:27:26;;;;;;;;;;;;;;;7.35;100.00;99777.13;4982379;28;20000;-82
2023/12/14 11:29:52;;;;;;;;;;;;;;;7.41;100.00;99776.09;4983957;28;19918;-83
2023/12/14 11:32:18;;;;;;;;;;;;;;;7.44;100.00;99776.84;4985079;28;19922;-83
2023/12/14 11:34:45;;;;;;;;;;;;;;;7.48;100.00;99784.66;4984779;28;20024;-82
2023/12/14 11:37:10;;;;;;;;;;;;;;;7.54;100.00;99785.34;4985392;28;19918;-82
2023/12/14 11:39:37;;;;;;;;;;;;;;;7.58;100.00;99789.63;4984773;28;19925;-82
2023/12/14 11:42:03;;;;;;;;;;;;;;;7.62;100.00;99795.66;4982357;28;19918;-82
2023/12/14 11:44:28;;;;;;;;;;;;;;;7.66;100.00;99792.03;4984656;28;19925;-82
2023/12/14 11:46:54;;;;;;;;;;;;;;;7.71;100.00;99791.91;4985203;28;20300;-84
2023/12/14 11:49:19;;;;;;;;;;;;;;;7.75;100.00;99793.50;4984658;28;19922;-84
2023/12/14 11:51:47;;;;;;;;;;;;;;;7.77;100.00;99792.56;4984680;28;20473;-84
2023/12/14 11:54:13;;;;;;;;;;;;;;;7.81;100.00;99796.81;4983375;28;19973;-89
2023/12/14 11:56:39;;;;;;;;;;;;;;;7.86;100.00;99793.19;4984580;28;19995;-84
2023/12/14 11:59:04;;;;;;;;;;;;;;;7.27;100.00;99793.19;4984155;28;19973;-82
2023/12/14 12:01:31;;;;;;;;;;;;;;;6.36;100.00;99789.50;4984508;28;19918;-86
2023/12/14 12:03:57;;;;;;;;;;;;;;;5.92;100.00;99791.41;4984180;28;19925;-81
2023/12/14 12:06:28;;;;;;;;;;;;;;;5.63;100.00;99793.84;4984398;28;20013;-82
2023/12/14 12:08:54;;;;;;;;;;;;;;;5.49;100.00;99790.66;4983402;28;19925;-83
2023/12/14 12:11:21;;;;;;;;;;;;;;;5.44;100.00;99782.88;4983200;28;19921;-88
2023/12/14 12:13:51;;;;;;;;;;;;;;;5.23;100.00;99786.84;4980752;28;19926;-83
2023/12/14 12:16:16;;;;;;;;;;;;;;;5.14;100.00;99781.75;4958452;28;19972;-82
2023/12/14 12:18:41;;;;;;;;;;;;;;;5.12;100.00;99791.41;4973751;28;19958;-83
2023/12/14 12:21:08;;;;;;;;;;;;;;;5.08;100.00;99792.41;4981394;28;19926;-84
2023/12/14 12:23:34;;;;;;;;;;;;;;;4.93;100.00;99797.94;4962756;28;20000;-84
2023/12/14 12:25:59;;;;;;;;;;;;;;;4.86;100.00;99792.81;4981061;28;20117;-84
2023/12/14 12:28:24;;;;;;;;;;;;;;;4.90;100.00;99799.75;4977901;28;20385;-82
2023/12/14 12:30:50;;;;;;;;;;;;;;;4.83;100.00;99799.88;4978510;28;19925;-82
2023/12/14 12:33:15;;;;;;;;;;;;;;;4.71;100.00;99801.00;4979360;28;19922;-85
2023/12/14 12:35:40;;;;;;;;;;;;;;;4.70;100.00;99789.59;4978037;28;20023;-85
2023/12/14 12:38:05;;;;;;;;;;;;;;;4.70;100.00;99805.34;4961853;28;19972;-86
2023/12/14 12:40:33;;;;;;;;;;;;;;;4.67;100.00;99807.19;4977943;28;20387;-87
2023/12/14 12:42:58;;;;;;;;;;;;;;;4.65;100.00;99806.34;4977630;28;19937;-80
2023/12/14 12:45:27;;;;;;;;;;;;;;;4.63;100.00;99809.00;4966215;28;19925;-83
2023/12/14 12:47:52;;;;;;;;;;;;;;;4.50;100.00;99813.59;4983568;28;19925;-83
2023/12/14 12:50:17;;;;;;;;;;;;;;;4.55;100.00;99816.16;4984043;28;20278;-81
2023/12/14 12:52:44;;;;;;;;;;;;;;;4.54;100.00;99820.50;4983299;28;19924;-81
2023/12/14 12:55:10;;;;;;;;;;;;;;;4.49;100.00;99824.97;4983049;28;20029;-82
2023/12/14 12:57:35;;;;;;;;;;;;;;;4.48;100.00;99827.63;4982157;28;20405;-90
2023/12/14 13:00:01;;;;;;;;;;;;;;;4.46;100.00;99832.06;4983099;28;19924;-86
2023/12/14 13:02:26;;;;;;;;;;;;;;;4.43;100.00;99838.22;4966321;28;19918;-85
2023/12/14 13:04:52;;;;;;;;;;;;;;;4.68;100.00;99829.91;4983402;28;19953;-82
2023/12/14 13:07:18;;;;;;;;;;;;;;;5.40;100.00;99848.66;4983072;28;20285;-84
2023/12/14 13:09:43;;;;;;;;;;;;;;;5.81;100.00;99846.91;4982912;28;19965;-83
2023/12/14 13:12:09;;;;;;;;;;;;;;;6.10;100.00;99858.56;4980998;28;19985;-88
2023/12/14 13:14:35;;;;;;;;;;;;;;;6.27;100.00;99863.41;4982981;28;19918;-82
2023/12/14 13:17:00;;;;;;;;;;;;;;;6.42;100.00;99864.84;4983431;28;20009;-85
2023/12/14 13:19:26;;;;;;;;;;;;;;;6.54;100.00;99873.28;4982978;28;19949;-86
2023/12/14 13:21:51;;;;;;;;;;;;;;;6.64;100.00;99873.06;4982796;28;20369;-85
2023/12/14 13:24:16;;;;;;;;;;;;;;;6.72;100.00;99884.25;4965789;28;19973;-83
2023/12/14 13:26:41;;;;;;;;;;;;;;;6.78;100.00;99891.13;4983276;28;19929;-84
2023/12/14 13:29:07;;;;;;;;;;;;;;;6.84;100.00;99896.25;4981720;28;19968;-85
2023/12/14 13:31:32;;;;;;;;;;;;;;;6.90;100.00;99906.63;4965504;28;20001;-84
2023/12/14 13:33:58;;;;;;;;;;;;;;;6.98;100.00;99909.06;4982831;28;19925;-82
2023/12/14 13:36:23;;;;;;;;;;;;;;;7.01;100.00;99909.84;4983096;28;19968;-85
2023/12/14 13:38:48;;;;;;;;;;;;;;;7.07;100.00;99922.00;4982830;28;20254;-85
2023/12/14 13:41:14;;;;;;;;;;;;;;;7.13;100.00;99924.44;4983089;28;19925;-85
2023/12/14 13:43:39;;;;;;;;;;;;;;;7.16;100.00;99937.53;4981797;28;19922;-84
2023/12/14 13:46:04;;;;;;;;;;;;;;;7.20;100.00;99930.44;4983546;28;20009;-84
2023/12/14 13:48:29;;;;;;;;;;;;;;;7.25;100.00;99945.22;4983117;28;19925;-83
2023/12/14 13:50:55;;;;;;;;;;;;;;;7.30;100.00;99938.97;4983089;28;20004;-84
2023/12/14 13:53:20;;;;;;;;;;;;;;;7.33;100.00;99930.97;4986344;28;19918;-84
2023/12/14 13:55:46;;;;;;;;;;;;;;;7.39;100.00;99936.94;4986420;28;19928;-85
2023/12/14 13:58:11;;;;;;;;;;;;;;;7.43;100.00;99943.84;4985761;28;20009;-85
2023/12/14 14:00:36;;;;;;;;;;;;;;;7.48;100.00;99954.25;4969197;28;20387;-85
2023/12/14 14:03:03;;;;;;;;;;;;;;;7.53;100.00;99954.13;4985361;28;19965;-88
2023/12/14 14:05:28;;;;;;;;;;;;;;;7.57;100.00;99963.72;4986499;28;19924;-84
2023/12/14 14:07:54;;;;;;;;;;;;;;;7.61;100.00;99974.13;4969429;28;20001;-83
2023/12/14 14:10:19;;;;;;;;;;;;;;;7.66;100.00;99970.47;4986499;28;20333;-85
2023/12/14 14:12:45;;;;;;;;;;;;;;;7.69;100.00;99980.94;4984943;28;20361;-85
2023/12/14 14:15:10;;;;;;;;;;;;;;;7.70;100.00;99975.63;4968952;28;19918;-84
2023/12/14 14:17:35;;;;;;;;;;;;;;;7.74;100.00;99985.19;4986649;28;19918;-83
2023/12/14 14:20:01;;;;;;;;;;;;;;;7.76;100.00;99993.94;4986367;28;19925;-83
2023/12/14 14:22:26;;;;;;;;;;;;;;;7.81;100.00;99991.16;4968603;28;19929;-83
2023/12/14 14:24:51;;;;;;;;;;;;;;;7.82;100.00;99995.53;4986312;28;19921;-84
2023/12/14 14:27:16;;;;;;;;;;;;;;;7.65;100.00;100017.09;4985564;28;19960;-85
2023/12/14 14:29:41;;;;;;;;;;;;;;;6.43;100.00;100014.84;4968632;28;20369;-89
2023/12/14 14:32:07;;;;;;;;;;;;;;;5.97;100.00;100021.06;4985968;28;19972;-84
2023/12/14 14:34:32;;;;;;;;;;;;;;;5.65;100.00;100022.53;4986031;28;20377;-85
2023/12/14 14:36:57;;;;;;;;;;;;;;;5.48;100.00;100029.88;4968683;28;20016;-84
2023/12/14 14:39:23;;;;;;;;;;;;;;;5.36;100.00;100025.69;4985837;28;20241;-83
2023/12/14 14:41:48;;;;;;;;;;;;;;;5.25;100.00;100039.03;4985799;28;19921;-84
2023/12/14 14:44:13;;;;;;;;;;;;;;;5.05;100.00;100036.72;4967629;28;19929;-83
2023/12/14 14:46:38;;;;;;;;;;;;;;;4.93;100.00;100047.41;4986070;28;19918;-83
2023/12/14 14:49:04;;;;;;;;;;;;;;;4.98;100.00;100056.06;4987029;28;19924;-82
2023/12/14 14:51:29;;;;;;;;;;;;;;;4.88;100.00;100048.38;4986164;28;20402;-82
2023/12/14 14:53:58;;;;;;;;;;;;;;;4.85;100.00;100056.28;4985689;28;19918;-83
2023/12/14 14:56:23;;;;;;;;;;;;;;;4.74;100.00;100063.47;4985643;28;19918;-83
2023/12/14 14:58:48;;;;;;;;;;;;;;;4.67;100.00;100067.03;4984062;28;19928;-87
2023/12/14 15:01:13;;;;;;;;;;;;;;;4.66;100.00;100079.31;4985574;28;19957;-85
2023/12/14 15:03:39;;;;;;;;;;;;;;;4.63;100.00;100081.97;4985397;28;19922;-84
2023/12/14 15:06:04;;;;;;;;;;;;;;;4.50;100.00;100086.53;4985539;28;20005;-83
2023/12/14 15:08:29;;;;;;;;;;;;;;;4.48;100.00;100098.81;4984812;28;19933;-82
2023/12/14 15:10:55;;;;;;;;;;;;;;;4.55;100.00;100095.19;4985321;28;19972;-84
2023/12/14 15:13:22;;;;;;;;;;;;;;;4.52;100.00;100102.25;4966770;28;19922;-81
2023/12/14 15:15:47;;;;;;;;;;;;;;;4.41;100.00;100105.00;4986275;28;20020;-85
2023/12/14 15:18:12;;;;;;;;;;;;;;;4.49;100.00;100111.03;4985575;28;19977;-83
2023/12/14 15:20:39;;;;;;;;;;;;;;;5.32;100.00;100126.50;4967459;28;19953;-85
2023/12/14 15:23:05;;;;;;;;;;;;;;;5.80;100.00;100134.44;4985874;28;19921;-84
2023/12/14 15:25:30;;;;;;;;;;;;;;;6.02;100.00;100136.72;4985085;28;20012;-84
2023/12/14 15:27:56;;;;;;;;;;;;;;;6.21;100.00;100143.38;4981499;28;19921;-92
2023/12/14 15:30:21;;;;;;;;;;;;;;;6.34;100.00;100154.53;4985501;28;19921;-86
2023/12/14 15:32:47;;;;;;;;;;;;;;;6.46;100.00;100149.03;4985330;28;19919;-84
2023/12/14 15:35:12;;;;;;;;;;;;;;;6.55;100.00;100154.06;4968630;28;19928;-83
2023/12/14 15:37:37;;;;;;;;;;;;;;;6.63;100.00;100155.69;4984554;28;20365;-83
2023/12/14 15:40:04;;;;;;;;;;;;;;;6.72;100.00;100166.03;4984798;28;19917;-82
2023/12/14 15:42:29;;;;;;;;;;;;;;;6.81;100.00;100163.22;4981084;28;20282;-83
2023/12/14 15:44:55;;;;;;;;;;;;;;;6.88;100.00;100163.94;4984227;28;19925;-84
2023/12/14 15:47:21;;;;;;;;;;;;;;;6.97;100.00;100168.13;4985552;28;19918;-84
2023/12/14 15:49:47;;;;;;;;;;;;;;;7.02;100.00;100172.41;4967122;28;19924;-84
2023/12/14 15:52:12;;;;;;;;;;;;;;;7.10;100.00;100177.53;4984274;28;20020;-84
2023/12/14 15:54:37;;;;;;;;;;;;;;;7.16;100.00;100179.13;4984209;28;19922;-82
2023/12/14 15:57:02;;;;;;;;;;;;;;;7.21;100.00;100185.16;4983080;28;20991;-84
2023/12/14 15:59:28;;;;;;;;;;;;;;;7.26;100.00;100183.31;4984623;28;20008;-84
2023/12/14 16:01:53;;;;;;;;;;;;;;;7.33;100.00;100190.16;4984714;28;19922;-83
2023/12/14 16:04:18;;;;;;;;;;;;;;;7.36;100.00;100190.09;4984499;28;19918;-80
2023/12/14 16:06:44;;;;;;;;;;;;;;;7.41;100.00;100187.34;4984188;28;20293;-83
2023/12/14 16:09:09;;;;;;;;;;;;;;;7.46;100.00;100188.97;4984385;28;20254;-83
2023/12/14 16:11:34;;;;;;;;;;;;;;;7.51;100.00;100194.13;4984632;28;19953;-83
2023/12/14 16:13:59;;;;;;;;;;;;;;;7.56;100.00;100194.91;4982124;28;19918;-84
2023/12/14 16:16:25;;;;;;;;;;;;;;;7.59;100.00;100201.88;4984117;28;19932;-84
2023/12/14 16:18:50;;;;;;;;;;;;;;;7.62;100.00;100209.72;4984622;28;19914;-83
2023/12/14 16:21:15;;;;;;;;;;;;;;;7.66;100.00;100213.13;4983940;28;19929;-84
2023/12/14 16:23:40;;;;;;;;;;;;;;;7.69;100.00;100216.59;4984454;28;19921;-83
2023/12/14 16:26:07;;;;;;;;;;;;;;;7.71;100.00;100217.41;4984326;28;20424;-85
2023/12/14 16:28:32;;;;;;;;;;;;;;;7.75;100.00;100229.59;4984131;28;19925;-84
2023/12/14 16:31:01;;;;;;;;;;;;;;;7.78;100.00;100237.44;4966118;28;19921;-84
2023/12/14 16:33:27;;;;;;;;;;;;;;;7.81;100.00;100240.00;4983227;28;20012;-90
2023/12/14 16:35:52;;;;;;;;;;;;;;;7.82;100.00;100241.75;4983638;28;20000;-84
2023/12/14 16:38:17;;;;;;;;;;;;;;;7.87;100.00;100238.16;4966623;28;19968;-83
2023/12/14 16:40:43;;;;;;;;;;;;;;;7.81;100.00;100241.78;4983609;28;19925;-83
2023/12/14 16:43:08;;;;;;;;;;;;;;;6.52;100.00;100233.13;4981362;28;19921;-82
2023/12/14 16:45:33;;;;;;;;;;;;;;;5.93;100.00;100242.94;4966653;28;20551;-83
2023/12/14 16:47:58;;;;;;;;;;;;;;;5.62;100.00;100253.94;4983642;28;20377;-83
2023/12/14 16:50:24;;;;;;;;;;;;;;;5.41;100.00;100255.13;4983423;28;19945;-82
2023/12/14 16:52:49;;;;;;;;;;;;;;;5.22;100.00;100265.88;4965861;28;19969;-83
2023/12/14 16:55:14;;;;;;;;;;;;;;;5.06;100.00;100277.50;4983737;28;19924;-83
2023/12/14 16:57:39;;;;;;;;;;;;;;;5.01;100.00;100284.53;4982523;28;19929;-84
2023/12/14 17:00:05;;;;;;;;;;;;;;;4.93;100.00;100284.66;4965676;28;19922;-84
2023/12/14 17:02:31;;;;;;;;;;;;;;;4.87;100.00;100289.97;4983470;28;19921;-83
2023/12/14 17:04:57;;;;;;;;;;;;;;;4.80;100.00;100291.75;4982339;28;19938;-83
2023/12/14 17:07:22;;;;;;;;;;;;;;;4.77;100.00;100304.97;4965777;28;19918;-84
2023/12/14 17:09:48;;;;;;;;;;;;;;;4.74;100.00;100305.00;4982860;28;19933;-83
2023/12/14 17:12:13;;;;;;;;;;;;;;;4.68;100.00;100311.16;4981905;28;20372;-84
2023/12/14 17:14:39;;;;;;;;;;;;;;;4.60;100.00;100315.63;4966349;28;19922;-84
2023/12/14 17:17:05;;;;;;;;;;;;;;;4.50;100.00;100320.09;4983038;28;19972;-83
2023/12/14 17:19:30;;;;;;;;;;;;;;;4.46;100.00;100339.38;4983302;28;20337;-83
2023/12/14 17:21:55;;;;;;;;;;;;;;;4.46;100.00;100343.75;4965499;28;19925;-82
2023/12/14 17:24:20;;;;;;;;;;;;;;;4.41;100.00;100351.66;4982971;28;19925;-83
2023/12/14 17:26:46;;;;;;;;;;;;;;;4.39;100.00;100344.66;4983117;28;19917;-83
2023/12/14 17:29:11;;;;;;;;;;;;;;;5.16;100.00;100359.69;4963952;28;19922;-85
2023/12/14 17:31:37;;;;;;;;;;;;;;;5.67;100.00;100366.94;4982889;28;19922;-83
2023/12/14 17:34:02;;;;;;;;;;;;;;;5.99;100.00;100372.63;4982874;28;19918;-83
2023/12/14 17:36:28;;;;;;;;;;;;;;;6.21;100.00;100374.94;4965585;28;19922;-83
2023/12/14 17:38:53;;;;;;;;;;;;;;;6.37;100.00;100372.94;4982962;28;19922;-83
2023/12/14 17:41:20;;;;;;;;;;;;;;;6.50;100.00;100382.34;4983476;28;19918;-83
2023/12/14 17:43:46;;;;;;;;;;;;;;;6.64;100.00;100390.03;4964317;28;20013;-83
2023/12/14 17:46:15;;;;;;;;;;;;;;;6.76;100.00;100403.88;4983054;28;20040;-84
2023/12/14 17:48:40;;;;;;;;;;;;;;;6.86;100.00;100410.72;4983262;28;19917;-83
2023/12/14 17:51:06;;;;;;;;;;;;;;;6.93;100.00;100407.09;4965298;28;20263;-83
2023/12/14 17:53:33;;;;;;;;;;;;;;;7.03;100.00;100413.06;4982618;28;19926;-82
2023/12/14 17:55:59;;;;;;;;;;;;;;;7.11;100.00;100407.66;4983141;28;19921;-82
2023/12/14 17:58:24;;;;;;;;;;;;;;;7.21;100.00;100417.13;4981766;28;19933;-81
2023/12/14 18:00:49;;;;;;;;;;;;;;;7.27;100.00;100417.88;4982625;28;20381;-81
2023/12/14 18:03:15;;;;;;;;;;;;;;;7.33;100.00;100408.97;4982616;28;19922;-81
2023/12/14 18:05:40;;;;;;;;;;;;;;;7.39;100.00;100416.78;4964120;28;20041;-82
2023/12/14 18:08:05;;;;;;;;;;;;;;;7.43;100.00;100421.06;4982417;28;20353;-82
2023/12/14 18:10:31;;;;;;;;;;;;;;;7.50;100.00;100421.84;4983026;28;19941;-81
2023/12/14 18:12:58;;;;;;;;;;;;;;;7.55;100.00;100421.75;4964275;28;19918;-81
2023/12/14 18:15:24;;;;;;;;;;;;;;;7.58;100.00;100424.31;4982607;28;19926;-81
2023/12/14 18:17:49;;;;;;;;;;;;;;;7.60;100.00;100414.59;4982387;28;19922;-87
2023/12/14 18:20:14;;;;;;;;;;;;;;;7.65;100.00;100420.66;4964874;28;19919;-82
2023/12/14 18:22:40;;;;;;;;;;;;;;;7.67;100.00;100421.47;4982618;28;19924;-83
2023/12/14 18:25:05;;;;;;;;;;;;;;;7.69;100.00;100422.34;4982619;28;19918;-85
2023/12/14 18:27:30;;;;;;;;;;;;;;;7.75;100.00;100431.88;4963731;28;19925;-83
2023/12/14 18:29:56;;;;;;;;;;;;;;;7.76;100.00;100431.84;4982567;28;19918;-82
2023/12/14 18:32:21;;;;;;;;;;;;;;;7.81;100.00;100437.03;4983011;28;19918;-82
2023/12/14 18:34:46;;;;;;;;;;;;;;;7.84;100.00;100446.66;4965037;28;19922;-83
2023/12/14 18:37:14;;;;;;;;;;;;;;;7.87;100.00;100447.44;4982526;28;20333;-83
2023/12/14 18:39:42;;;;;;;;;;;;;;;7.89;100.00;100457.97;4985964;28;19925;-83
2023/12/14 18:42:08;;;;;;;;;;;;;;;7.92;100.00;100463.19;4984897;28;20315;-83
2023/12/14 18:44:33;;;;;;;;;;;;;;;6.93;100.00;100462.41;4985508;28;20452;-83
2023/12/14 18:46:59;;;;;;;;;;;;;;;6.06;100.00;100464.63;4985825;28;19925;-82
2023/12/14 18:49:24;;;;;;;;;;;;;;;5.71;100.00;100473.78;4986095;28;19961;-86
2023/12/14 18:51:49;;;;;;;;;;;;;;;5.58;100.00;100476.56;4985862;28;19941;-87
2023/12/14 18:54:14;;;;;;;;;;;;;;;5.38;100.00;100483.81;4986194;28;19918;-85
2023/12/14 18:56:40;;;;;;;;;;;;;;;5.22;100.00;100489.22;4985182;28;20021;-88
2023/12/14 18:59:05;;;;;;;;;;;;;;;5.09;100.00;100495.47;4984642;28;20373;-83
2023/12/14 19:01:30;;;;;;;;;;;;;;;5.03;100.00;100498.16;4986224;28;19972;-82
2023/12/14 19:03:57;;;;;;;;;;;;;;;4.96;100.00;100504.34;4985550;28;19929;-82
2023/12/14 19:06:22;;;;;;;;;;;;;;;4.91;100.00;100499.13;4985791;28;19925;-83
2023/12/14 19:08:48;;;;;;;;;;;;;;;4.84;100.00;100506.19;4985983;28;19921;-83
2023/12/14 19:11:17;;;;;;;;;;;;;;;4.78;100.00;100511.47;4985390;28;19992;-82
2023/12/14 19:13:43;;;;;;;;;;;;;;;4.72;100.00;100508.91;4983655;28;19953;-83
2023/12/14 19:16:09;;;;;;;;;;;;;;;4.72;100.00;100501.91;4985240;28;19976;-88
2023/12/14 19:18:34;;;;;;;;;;;;;;;4.64;100.00;100513.34;4985035;28;19925;-83
2023/12/14 19:20:59;;;;;;;;;;;;;;;4.54;100.00;100513.38;4985305;28;20365;-80
2023/12/14 19:23:24;;;;;;;;;;;;;;;4.47;100.00;100521.34;4985227;28;19919;-81
2023/12/14 19:25:50;;;;;;;;;;;;;;;4.44;100.00;100523.97;4986688;28;19922;-80
2023/12/14 19:28:16;;;;;;;;;;;;;;;4.46;100.00;100536.19;4985531;28;19918;-81
2023/12/14 19:30:41;;;;;;;;;;;;;;;4.39;100.00;100537.13;4985482;28;20006;-81
2023/12/14 19:33:06;;;;;;;;;;;;;;;4.96;100.00;100536.72;4967255;28;19957;-80
2023/12/14 19:35:32;;;;;;;;;;;;;;;5.59;100.00;100543.19;4984704;28;20289;-85
2023/12/14 19:37:57;;;;;;;;;;;;;;;5.95;100.00;100564.69;4967295;28;19926;-84
2023/12/14 19:40:22;;;;;;;;;;;;;;;6.19;100.00;100563.59;4984588;28;19925;-83
2023/12/14 19:42:47;;;;;;;;;;;;;;;6.33;100.00;100566.91;4983862;28;20369;-83
2023/12/14 19:45:13;;;;;;;;;;;;;;;6.51;100.00;100575.41;4967256;28;19929;-83
2023/12/14 19:47:40;;;;;;;;;;;;;;;6.64;100.00;100568.25;4984432;28;19989;-82
2023/12/14 19:50:09;;;;;;;;;;;;;;;6.75;100.00;100575.97;4983436;28;19992;-81
2023/12/14 19:52:35;;;;;;;;;;;;;;;6.87;100.00;100581.06;4984691;28;19918;-82
2023/12/14 19:55:02;;;;;;;;;;;;;;;6.96;100.00;100587.97;4966618;28;19918;-82
2023/12/14 19:57:29;;;;;;;;;;;;;;;7.07;100.00;100592.19;4983392;28;19996;-82
2023/12/14 19:59:54;;;;;;;;;;;;;;;7.15;100.00;100581.53;4984503;28;19918;-82
2023/12/14 20:02:20;;;;;;;;;;;;;;;7.24;100.00;100585.75;4984130;28;19922;-82
2023/12/14 20:04:45;;;;;;;;;;;;;;;7.30;100.00;100590.94;4984190;28;19914;-81
2023/12/14 20:07:11;;;;;;;;;;;;;;;7.36;100.00;100584.69;4983841;28;19976;-82
2023/12/14 20:09:36;;;;;;;;;;;;;;;7.41;100.00;100588.97;4984269;28;20041;-81
2023/12/14 20:12:02;;;;;;;;;;;;;;;7.48;100.00;100591.53;4965535;28;20020;-81
2023/12/14 20:14:27;;;;;;;;;;;;;;;7.53;100.00;100598.47;4984317;28;19922;-82
2023/12/14 20:16:52;;;;;;;;;;;;;;;7.57;100.00;100599.28;4984146;28;19922;-83
2023/12/14 20:19:17;;;;;;;;;;;;;;;7.61;100.00;100606.22;4966469;28;19917;-83
2023/12/14 20:21:43;;;;;;;;;;;;;;;7.64;100.00;100606.16;4984237;28;19922;-82
2023/12/14 20:24:08;;;;;;;;;;;;;;;7.68;100.00;100607.88;4984051;28;20433;-81
2023/12/14 20:26:33;;;;;;;;;;;;;;;7.72;100.00;100598.13;4983791;28;19922;-82
2023/12/14 20:29:02;;;;;;;;;;;;;;;7.74;100.00;100607.75;4982439;28;19925;-92
2023/12/14 20:31:27;;;;;;;;;;;;;;;7.78;100.00;100609.44;4966088;28;19915;-82
2023/12/14 20:33:52;;;;;;;;;;;;;;;7.84;100.00;100612.88;4984408;28;19928;-81
2023/12/14 20:36:17;;;;;;;;;;;;;;;7.86;100.00;100616.34;4983789;28;19922;-85
2023/12/14 20:38:44;;;;;;;;;;;;;;;7.89;100.00;100621.56;4983866;28;20001;-84
2023/12/14 20:41:09;;;;;;;;;;;;;;;7.90;100.00;100618.91;4983821;28;20289;-85
2023/12/14 20:43:34;;;;;;;;;;;;;;;7.93;100.00;100623.22;4982334;28;19937;-85
2023/12/14 20:46:00;;;;;;;;;;;;;;;6.80;100.00;100619.81;4982714;28;19919;-81
2023/12/14 20:48:25;;;;;;;;;;;;;;;6.05;100.00;100619.00;4982950;28;19930;-83
2023/12/14 20:50:50;;;;;;;;;;;;;;;5.73;100.00;100629.81;4982944;28;19929;-91
2023/12/14 20:53:16;;;;;;;;;;;;;;;5.50;100.00;100628.25;4982889;28;20285;-82
2023/12/14 20:55:41;;;;;;;;;;;;;;;6.60;100.00;100627.09;4982343;28;19929;-81
2023/12/14 20:58:07;;;;;;;;;;;;;;;6.20;100.00;100628.47;4979025;28;20281;-86
2023/12/14 21:00:33;;;;;;;;;;;;;;;5.44;100.00;100636.19;4982545;28;20344;-83
2023/12/14 21:02:58;;;;;;;;;;;;;;;5.26;100.00;100643.34;4983415;28;19957;-84
2023/12/14 21:05:23;;;;;;;;;;;;;;;5.07;100.00;100646.97;4983055;28;19929;-87
2023/12/14 21:07:48;;;;;;;;;;;;;;;4.96;100.00;100647.03;4981900;28;20292;-81
2023/12/14 21:10:14;;;;;;;;;;;;;;;4.95;100.00;100645.31;4981510;28;19918;-83
2023/12/14 21:12:40;;;;;;;;;;;;;;;4.90;100.00;100654.97;4980649;28;19922;-84
2023/12/14 21:15:07;;;;;;;;;;;;;;;4.77;100.00;100656.78;4980964;28;19925;-90
2023/12/14 21:17:32;;;;;;;;;;;;;;;4.77;100.00;100650.66;4983102;28;19996;-87
2023/12/14 21:19:57;;;;;;;;;;;;;;;4.68;100.00;100657.69;4982585;28;20424;-86
2023/12/14 21:22:23;;;;;;;;;;;;;;;4.64;100.00;100660.34;4966575;28;19918;-86
2023/12/14 21:24:49;;;;;;;;;;;;;;;4.60;100.00;100663.88;4982046;28;19922;-85
2023/12/14 21:29:58;;;;;;;;;;;;;;;4.71;100.00;100669.94;4983759;28;19934;-84
2023/12/14 21:32:24;;;;;;;;;;;;;;;4.57;100.00;100679.63;4962749;28;19926;-83
2023/12/14 21:34:49;;;;;;;;;;;;;;;4.50;100.00;100674.41;4964958;28;20008;-92
2023/12/14 21:37:14;;;;;;;;;;;;;;;4.46;100.00;100671.81;4964725;28;20388;-85
2023/12/14 21:39:40;;;;;;;;;;;;;;;4.41;100.00;100674.44;4983092;28;20285;-87